createdAt,value
2024-03-03T00:01:13.407Z,37.85
2024-03-03T00:03:40.525Z,49.42
2024-03-03T00:06:10.646Z,44.60
2024-03-03T00:08:37.744Z,45.40
2024-03-03T00:11:06.290Z,46.08
2024-03-03T00:13:33.474Z,44.42
2024-03-03T00:16:03.195Z,48.83
2024-03-03T00:18:30.302Z,42.95
2024-03-03T00:20:57.309Z,46.95
2024-03-03T00:23:24.357Z,43.22
2024-03-03T00:25:51.400Z,42.83
2024-03-03T00:28:18.479Z,41.50
2024-03-03T00:30:45.645Z,40.85
2024-03-03T00:33:12.754Z,42.13
2024-03-03T00:35:39.833Z,44.85
2024-03-03T00:38:06.852Z,43.67
2024-03-03T00:40:34.267Z,38.28
2024-03-03T00:43:01.499Z,45.85
2024-03-03T00:45:28.552Z,40.50
2024-03-03T00:47:55.648Z,46.00
2024-03-03T00:50:22.740Z,46.20
2024-03-03T00:52:55.993Z,40.28
2024-03-03T00:55:23.641Z,42.15
2024-03-03T00:57:51.377Z,44.55
2024-03-03T01:00:18.635Z,43.22
2024-03-03T01:02:45.969Z,48.13
2024-03-03T01:05:13.108Z,44.55
2024-03-03T01:07:43.195Z,42.15
2024-03-03T01:10:10.995Z,44.50
2024-03-03T01:12:38.282Z,44.72
2024-03-03T01:15:06.493Z,40.25
2024-03-03T01:17:33.650Z,42.50
2024-03-03T01:20:00.813Z,43.97
2024-03-03T01:22:28.133Z,39.92
2024-03-03T01:24:55.240Z,41.35
2024-03-03T01:27:22.179Z,44.78
2024-03-03T01:29:49.126Z,45.42
2024-03-03T01:32:16.104Z,39.53
2024-03-03T01:34:43.547Z,40.00
2024-03-03T01:37:10.813Z,39.92
2024-03-03T01:39:39.978Z,46.85
2024-03-03T01:42:07.198Z,45.50
2024-03-03T01:44:34.825Z,43.60
2024-03-03T01:47:02.306Z,40.92
2024-03-03T01:49:32.565Z,44.70
2024-03-03T01:52:05.411Z,40.33
2024-03-03T01:54:41.944Z,38.38
2024-03-03T01:57:13.057Z,41.97
2024-03-03T01:59:41.833Z,41.28
2024-03-03T02:02:09.138Z,40.90
2024-03-03T02:04:37.045Z,41.20
2024-03-03T02:07:04.628Z,46.17
2024-03-03T02:09:31.636Z,44.88
2024-03-03T02:11:58.581Z,40.58
2024-03-03T02:14:25.619Z,44.70
2024-03-03T02:16:52.803Z,39.10
2024-03-03T02:19:21.235Z,39.10
2024-03-03T02:21:48.326Z,42.95
2024-03-03T02:24:15.336Z,40.25
2024-03-03T02:26:42.406Z,42.25
2024-03-03T02:29:10.657Z,38.67
2024-03-03T02:31:37.686Z,43.42
2024-03-03T02:34:04.679Z,41.35
2024-03-03T02:36:31.687Z,38.45
2024-03-03T02:38:58.681Z,38.05
2024-03-03T02:41:25.848Z,44.13
2024-03-03T02:43:52.878Z,39.83
2024-03-03T02:46:19.948Z,45.35
2024-03-03T02:48:47.009Z,40.88
2024-03-03T02:51:14.258Z,42.22
2024-03-03T02:53:41.377Z,43.90
2024-03-03T02:56:09.268Z,38.95
2024-03-03T02:58:36.247Z,40.22
2024-03-03T03:01:03.616Z,42.35
2024-03-03T03:03:32.358Z,40.00
2024-03-03T03:05:59.684Z,35.58
2024-03-03T03:08:26.726Z,40.50
2024-03-03T03:10:55.390Z,36.00
2024-03-03T03:13:22.604Z,33.85
2024-03-03T03:15:49.617Z,37.80
2024-03-03T03:18:17.028Z,38.38
2024-03-03T03:20:44.113Z,36.20
2024-03-03T03:23:11.108Z,36.22
2024-03-03T03:25:38.170Z,34.58
2024-03-03T03:28:05.527Z,34.58
2024-03-03T03:30:32.638Z,44.83
2024-03-03T03:32:59.681Z,38.80
2024-03-03T03:35:26.968Z,36.35
2024-03-03T03:37:53.945Z,32.65
2024-03-03T03:40:20.984Z,42.47
2024-03-03T03:42:48.115Z,38.13
2024-03-03T03:45:16.157Z,34.33
2024-03-03T03:47:43.160Z,35.38
2024-03-03T03:50:10.502Z,39.53
2024-03-03T03:52:37.408Z,35.85
2024-03-03T03:55:05.102Z,46.25
2024-03-03T03:57:32.151Z,41.53
2024-03-03T03:59:59.107Z,38.38
2024-03-03T04:02:27.264Z,37.38
2024-03-03T04:04:54.167Z,39.75
2024-03-03T04:07:21.172Z,39.53
2024-03-03T04:09:48.244Z,30.55
2024-03-03T04:12:15.187Z,34.22
2024-03-03T04:14:42.304Z,31.55
2024-03-03T04:17:09.307Z,36.60
2024-03-03T04:19:36.353Z,36.58
2024-03-03T04:22:03.397Z,28.08
2024-03-03T04:24:30.524Z,35.90
2024-03-03T04:26:57.590Z,41.35
2024-03-03T04:29:24.602Z,30.27
2024-03-03T04:31:51.578Z,37.28
2024-03-03T04:34:18.679Z,34.70
2024-03-03T04:36:47.090Z,34.20
2024-03-03T04:39:14.489Z,35.47
2024-03-03T04:41:41.542Z,42.55
2024-03-03T04:44:08.534Z,43.33
2024-03-03T04:46:35.788Z,39.80
2024-03-03T04:49:02.963Z,36.05
2024-03-03T04:51:30.140Z,41.60
2024-03-03T04:53:57.154Z,37.28
2024-03-03T04:56:28.414Z,41.13
2024-03-03T04:58:55.411Z,39.38
2024-03-03T05:01:22.727Z,42.40
2024-03-03T05:03:49.871Z,35.05
2024-03-03T05:06:17.286Z,39.63
2024-03-03T05:08:44.263Z,35.03
2024-03-03T05:11:11.418Z,37.10
2024-03-03T05:13:39.461Z,34.72
2024-03-03T05:16:08.070Z,35.03
2024-03-03T05:18:35.569Z,38.78
2024-03-03T05:21:02.594Z,38.70
2024-03-03T05:23:29.620Z,37.25
2024-03-03T05:25:56.600Z,36.70
2024-03-03T05:28:25.403Z,39.80
2024-03-03T05:30:53.426Z,36.35
2024-03-03T05:33:20.562Z,37.63
2024-03-03T05:35:47.526Z,34.05
2024-03-03T05:38:16.343Z,39.95
2024-03-03T05:40:43.416Z,40.35
2024-03-03T05:43:10.538Z,36.13
2024-03-03T05:45:38.161Z,34.03
2024-03-03T05:48:05.706Z,41.03
2024-03-03T05:50:33.130Z,38.88
2024-03-03T05:53:00.205Z,36.63
2024-03-03T05:55:27.275Z,39.28
2024-03-03T05:57:55.185Z,35.20
2024-03-03T06:00:22.261Z,37.35
2024-03-03T06:02:49.513Z,38.80
2024-03-03T06:05:16.641Z,32.92
2024-03-03T06:07:43.725Z,38.40
2024-03-03T06:10:10.958Z,37.30
2024-03-03T06:12:38.041Z,38.35
2024-03-03T06:15:07.042Z,35.53
2024-03-03T06:17:34.180Z,37.95
2024-03-03T06:20:01.286Z,35.20
2024-03-03T06:22:28.396Z,34.05
2024-03-03T06:24:58.043Z,35.30
2024-03-03T06:27:25.054Z,36.38
2024-03-03T06:29:52.050Z,32.83
2024-03-03T06:32:19.299Z,36.35
2024-03-03T06:34:48.562Z,30.98
2024-03-03T06:37:16.825Z,33.25
2024-03-03T06:39:45.422Z,31.77
2024-03-03T06:42:12.733Z,32.22
2024-03-03T06:44:43.583Z,33.97
2024-03-03T06:47:10.596Z,28.23
2024-03-03T06:49:37.631Z,27.70
2024-03-03T06:52:05.046Z,30.25
2024-03-03T06:54:32.169Z,30.05
2024-03-03T06:56:59.209Z,34.08
2024-03-03T06:59:28.632Z,29.60
2024-03-03T07:01:56.198Z,31.73
2024-03-03T07:04:26.287Z,28.90
2024-03-03T07:06:54.155Z,28.25
2024-03-03T07:09:24.533Z,34.00
2024-03-03T07:11:52.562Z,33.13
2024-03-03T07:14:20.712Z,39.33
2024-03-03T07:16:48.423Z,31.08
2024-03-03T07:19:15.657Z,28.20
2024-03-03T07:21:44.282Z,36.92
2024-03-03T07:24:11.752Z,28.20
2024-03-03T07:26:39.258Z,33.00
2024-03-03T07:29:06.313Z,34.65
2024-03-03T07:31:33.381Z,33.50
2024-03-03T07:34:00.451Z,32.83
2024-03-03T07:36:27.570Z,26.65
2024-03-03T07:38:55.593Z,30.15
2024-03-03T07:41:22.672Z,30.98
2024-03-03T07:43:49.617Z,26.27
2024-03-03T07:46:17.657Z,31.35
2024-03-03T07:48:46.259Z,28.83
2024-03-03T07:51:13.562Z,31.80
2024-03-03T07:53:41.110Z,27.95
2024-03-03T07:56:08.429Z,28.95
2024-03-03T07:58:38.379Z,29.13
2024-03-03T08:01:07.009Z,29.48
2024-03-03T08:03:34.988Z,27.88
2024-03-03T08:06:02.256Z,36.45
2024-03-03T08:08:30.186Z,31.77
2024-03-03T08:10:57.258Z,28.52
2024-03-03T08:13:24.408Z,30.85
2024-03-03T08:15:51.521Z,31.00
2024-03-03T08:18:18.565Z,32.10
2024-03-03T08:20:45.731Z,30.45
2024-03-03T08:23:14.758Z,30.20
2024-03-03T08:25:41.729Z,30.52
2024-03-03T08:28:10.179Z,31.77
2024-03-03T08:30:37.516Z,27.23
2024-03-03T08:33:04.800Z,30.75
2024-03-03T08:35:31.862Z,28.73
2024-03-03T08:37:58.980Z,29.38
2024-03-03T08:40:26.138Z,30.50
2024-03-03T08:42:53.545Z,31.80
2024-03-03T08:45:20.586Z,34.60
2024-03-03T08:47:47.898Z,32.35
2024-03-03T08:50:16.275Z,29.02
2024-03-03T08:52:43.406Z,27.48
2024-03-03T08:55:10.464Z,29.83
2024-03-03T08:57:37.615Z,28.02
2024-03-03T09:00:16.261Z,28.42
2024-03-03T09:02:43.600Z,29.98
2024-03-03T09:05:12.373Z,37.50
2024-03-03T09:07:42.865Z,29.83
2024-03-03T09:10:10.045Z,29.83
2024-03-03T09:12:37.066Z,28.80
2024-03-03T09:15:04.266Z,28.90
2024-03-03T09:17:31.450Z,28.42
2024-03-03T09:19:58.518Z,26.83
2024-03-03T09:22:25.774Z,31.80
2024-03-03T09:24:53.458Z,26.30
2024-03-03T09:27:21.489Z,27.60
2024-03-03T09:29:48.497Z,28.65
2024-03-03T09:32:15.548Z,26.75
2024-03-03T09:34:42.596Z,30.40
2024-03-03T09:37:09.649Z,28.35
2024-03-03T09:39:37.641Z,26.95
2024-03-03T09:42:04.909Z,33.25
2024-03-03T09:44:42.935Z,26.00
2024-03-03T09:47:14.602Z,29.48
2024-03-03T09:49:46.044Z,28.13
2024-03-03T09:52:14.678Z,27.10
2024-03-03T09:54:45.776Z,33.67
2024-03-03T09:57:14.330Z,28.02
2024-03-03T09:59:41.880Z,26.52
2024-03-03T10:02:16.958Z,31.40
2024-03-03T10:04:48.475Z,26.98
2024-03-03T10:07:44.668Z,29.83
2024-03-03T10:10:16.352Z,29.08
2024-03-03T10:12:46.149Z,31.85
2024-03-03T10:15:13.577Z,31.92
2024-03-03T10:17:40.656Z,28.80
2024-03-03T10:20:08.615Z,30.73
2024-03-03T10:22:38.505Z,30.02
2024-03-03T10:25:11.443Z,30.40
2024-03-03T10:27:40.802Z,32.60
2024-03-03T10:30:11.141Z,28.90
2024-03-03T10:36:25.566Z,32.83
2024-03-03T10:38:56.625Z,29.42
2024-03-03T10:41:23.767Z,31.05
2024-03-03T10:43:52.603Z,33.58
2024-03-03T10:46:21.953Z,34.78
2024-03-03T10:48:49.542Z,29.20
2024-03-03T10:51:20.560Z,28.73
2024-03-03T10:53:52.912Z,29.02
2024-03-03T10:56:21.247Z,33.55
2024-03-03T10:58:50.445Z,32.72
2024-03-03T11:01:17.941Z,30.40
2024-03-03T11:03:47.644Z,28.15
2024-03-03T11:06:15.970Z,35.25
2024-03-03T11:08:51.618Z,30.73
2024-03-03T11:11:23.796Z,31.15
2024-03-03T11:14:13.525Z,33.75
2024-03-03T11:16:45.846Z,31.08
2024-03-03T11:19:25.093Z,37.20
2024-03-03T11:21:58.503Z,33.75
2024-03-03T11:24:32.583Z,29.83
2024-03-03T11:27:13.302Z,29.60
2024-03-03T11:29:41.458Z,31.35
2024-03-03T11:32:11.251Z,30.70
2024-03-03T11:34:39.850Z,33.90
2024-03-03T11:37:07.647Z,29.80
2024-03-03T11:39:34.579Z,31.45
2024-03-03T11:42:18.639Z,30.15
2024-03-03T11:44:53.418Z,28.75
2024-03-03T11:47:25.020Z,29.45
2024-03-03T11:49:52.761Z,31.05
2024-03-03T11:52:48.424Z,32.97
2024-03-03T11:55:24.888Z,36.20
2024-03-03T11:57:53.358Z,30.65
2024-03-03T12:00:26.096Z,29.92
2024-03-03T12:02:54.814Z,33.28
2024-03-03T12:05:22.396Z,30.83
2024-03-03T12:07:51.832Z,29.70
2024-03-03T12:10:22.700Z,35.03
2024-03-03T12:12:56.806Z,34.50
2024-03-03T12:15:26.043Z,33.47
2024-03-03T12:17:54.692Z,30.73
2024-03-03T12:20:27.032Z,32.83
2024-03-03T12:22:55.895Z,29.60
2024-03-03T12:25:24.433Z,31.80
2024-03-03T12:27:59.502Z,31.10
2024-03-03T12:30:33.114Z,31.52
2024-03-03T12:33:04.355Z,31.52
2024-03-03T12:35:31.357Z,34.00
2024-03-03T12:37:58.852Z,30.55
2024-03-03T12:40:26.711Z,33.10
2024-03-03T12:42:54.240Z,35.42
2024-03-03T12:45:21.572Z,32.70
2024-03-03T12:47:51.452Z,32.00
2024-03-03T12:50:20.507Z,31.20
2024-03-03T12:52:49.042Z,34.88
2024-03-03T12:55:17.259Z,36.33
2024-03-03T12:57:45.882Z,29.85
2024-03-03T13:00:15.030Z,32.60
2024-03-03T13:02:43.883Z,32.50
2024-03-03T13:05:15.783Z,34.28
2024-03-03T13:07:50.174Z,31.33
2024-03-03T13:10:21.221Z,29.88
2024-03-03T13:12:56.174Z,30.52
2024-03-03T13:15:25.184Z,28.02
2024-03-03T13:18:14.681Z,32.63
2024-03-03T13:20:42.368Z,32.83
2024-03-03T13:23:14.711Z,32.28
2024-03-03T13:25:46.122Z,34.72
2024-03-03T13:28:19.304Z,35.97
2024-03-03T13:31:00.351Z,34.22
2024-03-03T13:33:34.809Z,32.45
2024-03-03T13:38:30.554Z,32.42
2024-03-03T13:40:57.653Z,35.20
2024-03-03T13:43:25.253Z,34.92
2024-03-03T13:45:54.076Z,34.10
2024-03-03T13:48:21.239Z,33.13
2024-03-03T13:50:48.847Z,31.75
2024-03-03T13:53:17.668Z,33.58
2024-03-03T13:55:46.479Z,29.58
2024-03-03T13:58:14.286Z,37.58
2024-03-03T14:00:41.500Z,30.38
2024-03-03T14:03:09.438Z,37.90
2024-03-03T14:05:37.065Z,31.27
2024-03-03T14:08:05.874Z,31.70
2024-03-03T14:10:33.657Z,33.08
2024-03-03T14:13:04.344Z,33.90
2024-03-03T14:15:33.250Z,32.65
2024-03-03T14:18:01.734Z,33.05
2024-03-03T14:20:29.905Z,29.42
2024-03-03T14:22:57.516Z,33.42
2024-03-03T14:25:26.522Z,31.83
2024-03-03T14:28:04.526Z,32.83
2024-03-03T14:30:38.906Z,33.30
2024-03-03T14:33:06.538Z,32.83
2024-03-03T14:35:33.797Z,33.35
2024-03-03T14:38:01.466Z,31.20
2024-03-03T14:40:28.741Z,30.35
2024-03-03T14:42:58.791Z,34.45
2024-03-03T14:45:32.211Z,36.03
2024-03-03T14:47:59.579Z,37.92
2024-03-03T14:50:26.613Z,30.58
2024-03-03T14:52:55.430Z,35.85
2024-03-03T14:55:23.257Z,33.20
2024-03-03T14:57:50.665Z,30.13
2024-03-03T15:00:18.496Z,33.53
2024-03-03T15:02:45.661Z,31.55
2024-03-03T15:05:13.041Z,30.70
2024-03-03T15:07:40.202Z,29.88
2024-03-03T15:10:08.225Z,31.08
2024-03-03T15:12:35.404Z,27.67
2024-03-03T15:15:02.546Z,33.67
2024-03-03T15:17:29.590Z,34.88
2024-03-03T15:19:58.618Z,30.63
2024-03-03T15:22:26.224Z,32.55
2024-03-03T15:24:53.419Z,33.05
2024-03-03T15:27:21.281Z,33.05
2024-03-03T15:29:48.302Z,35.25
2024-03-03T15:32:15.464Z,32.97
2024-03-03T15:34:42.458Z,31.80
2024-03-03T15:37:10.278Z,36.45
2024-03-03T15:39:39.701Z,33.00
2024-03-03T15:42:07.525Z,30.42
2024-03-03T15:44:35.597Z,35.75
2024-03-03T15:47:03.524Z,33.88
2024-03-03T15:49:30.909Z,35.08
2024-03-03T15:51:58.046Z,36.42
2024-03-03T15:54:25.220Z,30.77
2024-03-03T15:56:52.342Z,34.08
2024-03-03T15:59:19.406Z,35.28
2024-03-03T16:01:46.733Z,39.17
2024-03-03T16:04:13.846Z,36.03
2024-03-03T16:06:40.959Z,37.30
2024-03-03T16:09:08.104Z,38.30
2024-03-03T16:11:35.544Z,35.63
2024-03-03T16:14:02.715Z,39.15
2024-03-03T16:16:30.874Z,41.22
2024-03-03T16:18:58.312Z,38.03
2024-03-03T16:21:27.944Z,41.97
2024-03-03T16:23:58.321Z,36.38
2024-03-03T16:26:27.170Z,38.30
2024-03-03T16:32:42.657Z,39.33
2024-03-03T16:35:10.576Z,44.05
2024-03-03T16:37:37.776Z,41.75
2024-03-03T16:40:06.069Z,42.55
2024-03-03T16:42:33.247Z,45.50
2024-03-03T16:45:00.596Z,39.90
2024-03-03T16:47:27.653Z,47.47
2024-03-03T16:49:54.723Z,45.15
2024-03-03T16:52:23.209Z,48.72
2024-03-03T16:54:50.608Z,41.40
2024-03-03T16:57:17.691Z,37.85
2024-03-03T16:59:44.773Z,40.95
2024-03-03T17:02:11.900Z,46.78
2024-03-03T17:04:40.593Z,49.78
2024-03-03T17:07:07.750Z,45.33
2024-03-03T17:09:34.738Z,43.95
2024-03-03T17:12:01.828Z,46.78
2024-03-03T17:14:28.981Z,43.47
2024-03-03T17:16:56.074Z,48.70
2024-03-03T17:19:23.189Z,48.00
2024-03-03T17:21:50.237Z,41.63
2024-03-03T17:24:17.331Z,45.20
2024-03-03T17:26:44.441Z,43.83
2024-03-03T17:29:11.405Z,47.38
2024-03-03T17:31:38.424Z,42.00
2024-03-03T17:34:05.802Z,53.15
2024-03-03T17:36:35.004Z,51.40
2024-03-03T17:39:02.182Z,54.80
2024-03-03T17:41:29.231Z,48.75
2024-03-03T17:43:56.626Z,45.58
2024-03-03T17:46:24.241Z,49.20
2024-03-03T17:48:51.372Z,43.72
2024-03-03T17:51:18.482Z,43.33
2024-03-03T17:53:45.501Z,45.25
2024-03-03T17:56:12.661Z,45.42
2024-03-03T17:58:39.701Z,43.88
2024-03-03T18:01:06.889Z,41.65
2024-03-03T18:03:33.949Z,40.67
2024-03-03T18:06:00.920Z,38.45
2024-03-03T18:08:28.024Z,49.42
2024-03-03T18:14:36.277Z,42.67
2024-03-03T18:17:03.350Z,40.88
2024-03-03T18:19:31.169Z,40.25
2024-03-03T18:21:58.901Z,42.10
2024-03-03T18:24:31.258Z,40.72
2024-03-03T18:26:58.775Z,45.40
2024-03-03T18:29:25.894Z,45.42
2024-03-03T18:31:53.085Z,48.10
2024-03-03T18:34:22.390Z,41.70
2024-03-03T18:36:52.520Z,48.60
2024-03-03T18:39:24.344Z,44.33
2024-03-03T18:41:52.248Z,42.83
2024-03-03T18:44:20.107Z,39.97
2024-03-03T18:50:34.538Z,34.33
2024-03-03T18:53:01.531Z,42.30
2024-03-03T18:55:29.452Z,33.15
2024-03-03T18:57:56.563Z,28.05
2024-03-03T19:00:23.948Z,30.50
2024-03-03T19:02:51.066Z,31.98
2024-03-03T19:05:18.466Z,27.98
2024-03-03T19:07:45.578Z,30.10
2024-03-03T19:10:12.918Z,28.40
2024-03-03T19:12:40.173Z,30.00
2024-03-03T19:15:07.611Z,26.02
2024-03-03T19:17:34.599Z,25.88
2024-03-03T19:20:01.697Z,24.88
2024-03-03T19:22:28.746Z,27.95
2024-03-03T19:24:55.884Z,24.55
2024-03-03T19:27:22.915Z,27.80
2024-03-03T19:29:49.914Z,21.38
2024-03-03T19:32:16.956Z,26.08
2024-03-03T19:34:44.142Z,25.30
2024-03-03T19:37:12.859Z,24.40
2024-03-03T19:39:40.128Z,24.52
2024-03-03T19:42:07.875Z,24.88
2024-03-03T19:44:35.103Z,22.92
2024-03-03T19:47:02.183Z,23.75
2024-03-03T19:49:29.168Z,25.13
2024-03-03T19:51:57.686Z,21.73
2024-03-03T19:54:24.735Z,24.52
2024-03-03T19:56:51.733Z,25.05
2024-03-03T19:59:19.632Z,23.75
2024-03-03T20:01:46.574Z,22.25
2024-03-03T20:04:13.801Z,18.65
2024-03-03T20:06:40.747Z,23.67
2024-03-03T20:09:11.519Z,23.25
2024-03-03T20:11:42.313Z,23.40
2024-03-03T20:14:11.433Z,20.50
2024-03-03T20:16:38.661Z,20.63
2024-03-03T20:19:05.860Z,21.50
2024-03-03T20:21:32.882Z,23.80
2024-03-03T20:24:01.177Z,25.15
2024-03-03T20:26:28.295Z,22.63
2024-03-03T20:28:55.269Z,20.25
2024-03-03T20:31:22.655Z,20.80
2024-03-03T20:33:49.909Z,20.88
2024-03-03T20:36:21.113Z,19.85
2024-03-03T20:38:48.084Z,19.30
2024-03-03T20:41:15.140Z,18.10
2024-03-03T20:43:42.491Z,17.27
2024-03-03T20:46:09.576Z,25.48
2024-03-03T20:48:36.574Z,19.35
2024-03-03T20:51:03.676Z,20.35
2024-03-03T20:53:31.325Z,19.02
2024-03-03T20:55:58.382Z,18.67
2024-03-03T20:58:25.418Z,18.67
2024-03-03T21:00:53.061Z,19.55
2024-03-03T21:03:20.138Z,18.15
2024-03-03T21:05:49.917Z,15.95
2024-03-03T21:08:21.409Z,18.70
2024-03-03T21:10:48.656Z,19.40
2024-03-03T21:13:15.754Z,19.70
2024-03-03T21:15:42.754Z,20.30
2024-03-03T21:18:10.718Z,18.75
2024-03-03T21:20:38.444Z,19.77
2024-03-03T21:23:05.531Z,19.30
2024-03-03T21:25:33.266Z,18.17
2024-03-03T21:28:00.533Z,17.23
2024-03-03T21:30:27.690Z,20.10
2024-03-03T21:32:54.739Z,17.27
2024-03-03T21:35:21.824Z,16.90
2024-03-03T21:37:48.740Z,18.48
2024-03-03T21:40:15.798Z,20.65
2024-03-03T21:42:42.734Z,20.40
2024-03-03T21:45:10.600Z,17.63
2024-03-03T21:47:37.801Z,17.83
2024-03-03T21:50:07.828Z,15.02
2024-03-03T21:52:35.060Z,21.08
2024-03-03T21:55:02.291Z,15.18
2024-03-03T21:57:29.420Z,14.85
2024-03-03T21:59:56.365Z,16.98
2024-03-03T22:02:23.844Z,18.88
2024-03-03T22:04:50.987Z,18.80
2024-03-03T22:07:18.016Z,16.50
2024-03-03T22:09:45.167Z,18.17
2024-03-03T22:12:12.254Z,16.92
2024-03-03T22:14:39.726Z,15.38
2024-03-03T22:17:07.143Z,17.02
2024-03-03T22:19:34.391Z,20.05
2024-03-03T22:22:01.612Z,13.57
2024-03-03T22:24:29.371Z,20.98
2024-03-03T22:26:56.538Z,15.77
2024-03-03T22:29:23.576Z,20.40
2024-03-03T22:31:51.606Z,15.70
2024-03-03T22:34:18.656Z,19.60
2024-03-03T22:36:46.793Z,18.02
2024-03-03T22:39:14.039Z,15.95
2024-03-03T22:41:41.086Z,18.33
2024-03-03T22:44:08.069Z,16.30
2024-03-03T22:46:35.050Z,18.35
2024-03-03T22:49:03.838Z,16.80
2024-03-03T22:51:31.174Z,17.17
2024-03-03T22:53:58.395Z,19.48
2024-03-03T22:56:27.649Z,18.13
2024-03-03T22:58:54.789Z,15.23
2024-03-03T23:01:21.856Z,18.45
2024-03-03T23:03:49.009Z,17.63
2024-03-03T23:06:16.246Z,17.67
2024-03-03T23:08:43.300Z,15.48
2024-03-03T23:11:10.301Z,18.38
2024-03-03T23:13:37.399Z,18.75
2024-03-03T23:16:08.370Z,17.88
2024-03-03T23:18:35.541Z,18.38
2024-03-03T23:21:02.643Z,19.73
2024-03-03T23:23:30.018Z,22.88
2024-03-03T23:25:58.428Z,17.15
2024-03-03T23:28:26.713Z,19.40
2024-03-03T23:30:54.022Z,19.48
2024-03-03T23:33:21.193Z,20.13
2024-03-03T23:35:48.278Z,24.52
2024-03-03T23:38:15.307Z,15.35
2024-03-03T23:40:42.615Z,18.33
2024-03-03T23:43:09.821Z,18.98
2024-03-03T23:45:37.083Z,18.27
2024-03-03T23:48:07.409Z,17.38
2024-03-03T23:50:34.527Z,19.27
2024-03-03T23:53:01.552Z,19.48
2024-03-03T23:55:28.541Z,21.48
2024-03-03T23:57:55.627Z,20.13
